Terminal Aerodrome Forecast
Issued by NWS Jackson, MS

Home | Current Version | Previous Version | Text Only | Print | Product List | Glossary On
Versions: 1 2 3 4 5 6 7 8 9 10 11 12 13 14 15
000
FTUS44 KJAN 271400 AAA
TAFHBG
TAF AMD
KHBG 271413Z 2714/2812 11005KT P6SM VCSH BKN019
     FM271800 15008KT 4SM SHRA BR VCTS BKN008 OVC015CB
     FM272200 17008KT 2SM +SHRA BR VCTS OVC007CB=

USA.gov is the U.S. government's official web portal to all federal, state and local government web resources and services.